createdAt,value
2023-03-21T00:00:23.634Z,10.92
2023-03-21T00:02:50.300Z,10.92
2023-03-21T00:05:16.963Z,10.93
2023-03-21T00:07:43.583Z,10.94
2023-03-21T00:10:16.482Z,10.90
2023-03-21T00:12:43.432Z,10.89
2023-03-21T00:15:12.933Z,10.85
2023-03-21T00:17:39.865Z,10.85
2023-03-21T00:20:15.233Z,10.84
2023-03-21T00:22:42.118Z,10.86
2023-03-21T00:25:10.616Z,10.85
2023-03-21T00:27:56.797Z,10.86
2023-03-21T00:30:24.135Z,10.83
2023-03-21T00:32:56.507Z,10.80
2023-03-21T00:35:54.042Z,10.83
2023-03-21T00:38:10.583Z,10.83
2023-03-21T00:40:40.845Z,10.82
2023-03-21T00:43:17.598Z,10.82
2023-03-21T00:45:44.640Z,10.81
2023-03-21T00:48:11.257Z,10.79
2023-03-21T00:50:38.968Z,10.78
2023-03-21T00:53:06.350Z,10.76
2023-03-21T00:55:33.468Z,10.72
2023-03-21T00:58:02.337Z,10.72
2023-03-21T01:00:29.507Z,10.72
2023-03-21T01:03:11.140Z,10.71
2023-03-21T01:06:04.618Z,10.69
2023-03-21T01:08:58.100Z,10.68
2023-03-21T01:11:27.203Z,10.64
2023-03-21T01:14:04.265Z,10.58
2023-03-21T01:16:38.418Z,10.58
2023-03-21T01:19:09.445Z,10.60
2023-03-21T01:21:41.394Z,10.63
2023-03-21T01:24:08.175Z,10.64
2023-03-21T01:26:34.722Z,10.64
2023-03-21T01:29:01.288Z,10.63
2023-03-21T01:31:27.868Z,10.65
2023-03-21T01:33:54.414Z,10.67
2023-03-21T01:36:25.113Z,10.66
2023-03-21T01:38:52.555Z,10.66
2023-03-21T01:41:42.008Z,10.69
2023-03-21T01:44:14.980Z,10.68
2023-03-21T01:46:54.424Z,10.69
2023-03-21T01:49:34.547Z,10.68
2023-03-21T01:52:12.777Z,10.69
2023-03-21T01:54:43.249Z,10.66
2023-03-21T01:57:16.852Z,10.64
2023-03-21T01:59:46.101Z,10.61
2023-03-21T02:02:17.962Z,10.60
2023-03-21T02:04:56.023Z,10.57
2023-03-21T02:07:28.858Z,10.57
2023-03-21T02:09:56.145Z,10.61
2023-03-21T02:12:22.814Z,10.63
2023-03-21T02:14:50.209Z,10.62
2023-03-21T02:17:31.708Z,10.63
2023-03-21T02:20:01.481Z,10.65
2023-03-21T02:22:34.517Z,10.64
2023-03-21T02:25:24.294Z,10.65
2023-03-21T02:27:55.076Z,10.66
2023-03-21T02:30:42.646Z,10.66
2023-03-21T02:33:20.451Z,10.65
2023-03-21T02:36:15.976Z,10.62
2023-03-21T02:38:56.211Z,10.59
2023-03-21T02:41:45.750Z,10.57
2023-03-21T02:44:37.895Z,10.58
2023-03-21T02:47:20.240Z,10.58
2023-03-21T02:49:51.663Z,10.60
2023-03-21T02:52:35.544Z,10.61
2023-03-21T02:55:06.358Z,10.58
2023-03-21T02:57:42.233Z,10.56
2023-03-21T03:00:16.516Z,10.52
2023-03-21T03:02:43.960Z,10.53
2023-03-21T03:05:22.574Z,10.51
2023-03-21T03:08:02.273Z,10.49
2023-03-21T03:10:37.406Z,10.50
2023-03-21T03:13:23.406Z,10.44
2023-03-21T03:16:05.870Z,10.39
2023-03-21T03:18:41.469Z,10.37
2023-03-21T03:21:16.203Z,10.36
2023-03-21T03:23:47.253Z,10.38
2023-03-21T03:26:24.721Z,10.35
2023-03-21T03:28:57.425Z,10.34
2023-03-21T03:31:28.518Z,10.36
2023-03-21T03:33:56.750Z,10.37
2023-03-21T03:36:32.515Z,10.42
2023-03-21T03:39:01.596Z,10.42
2023-03-21T03:41:30.170Z,10.38
2023-03-21T03:44:03.517Z,10.38
2023-03-21T03:46:33.629Z,10.35
2023-03-21T03:49:13.403Z,10.35
2023-03-21T03:51:51.121Z,10.32
2023-03-21T03:54:28.754Z,10.29
2023-03-21T03:56:55.618Z,10.27
2023-03-21T03:59:22.129Z,10.28
2023-03-21T04:01:49.348Z,10.28
2023-03-21T04:04:17.067Z,10.28
2023-03-21T04:06:51.458Z,10.29
2023-03-21T04:09:22.094Z,10.28
2023-03-21T04:11:50.000Z,10.26
2023-03-21T04:14:16.675Z,10.27
2023-03-21T04:16:43.170Z,10.25
2023-03-21T04:19:09.757Z,10.25
2023-03-21T04:21:36.656Z,10.23
2023-03-21T04:24:03.307Z,10.23
2023-03-21T04:26:33.122Z,10.21
2023-03-21T04:29:00.973Z,10.18
2023-03-21T04:31:28.687Z,10.17
2023-03-21T04:33:56.144Z,10.15
2023-03-21T04:36:39.226Z,10.13
2023-03-21T04:39:12.367Z,10.13
2023-03-21T04:41:44.162Z,10.14
2023-03-21T04:44:11.877Z,10.12
2023-03-21T04:46:38.752Z,10.12
2023-03-21T04:49:07.028Z,10.13
2023-03-21T04:51:34.024Z,10.14
2023-03-21T04:54:00.563Z,10.15
2023-03-21T04:56:32.716Z,10.15
2023-03-21T04:59:00.803Z,10.15
2023-03-21T05:01:30.656Z,10.16
2023-03-21T05:04:01.216Z,10.17
2023-03-21T05:06:28.094Z,10.13
2023-03-21T05:08:56.767Z,10.15
2023-03-21T05:11:23.404Z,10.16
2023-03-21T05:13:49.907Z,10.17
2023-03-21T05:16:16.514Z,10.20
2023-03-21T05:18:43.185Z,10.22
2023-03-21T05:21:10.818Z,10.22
2023-03-21T05:23:40.205Z,10.23
2023-03-21T05:26:10.404Z,10.24
2023-03-21T05:28:37.909Z,10.22
2023-03-21T05:31:04.546Z,10.20
2023-03-21T05:33:31.260Z,10.21
2023-03-21T05:35:58.431Z,10.22
2023-03-21T05:38:25.852Z,10.23
2023-03-21T05:40:54.158Z,10.22
2023-03-21T05:43:20.919Z,10.23
2023-03-21T05:45:48.427Z,10.25
2023-03-21T05:48:15.528Z,10.27
2023-03-21T05:50:42.511Z,10.28
2023-03-21T05:53:09.056Z,10.28
2023-03-21T05:55:36.139Z,10.32
2023-03-21T05:58:02.807Z,10.36
2023-03-21T06:00:30.618Z,10.37
2023-03-21T06:02:57.346Z,10.42
2023-03-21T06:05:23.936Z,10.44
2023-03-21T06:07:50.657Z,10.46
2023-03-21T06:10:17.268Z,10.46
2023-03-21T06:12:43.941Z,10.50
2023-03-21T06:15:10.902Z,10.47
2023-03-21T06:17:37.464Z,10.49
2023-03-21T06:20:05.359Z,10.51
2023-03-21T06:22:33.786Z,10.51
2023-03-21T06:25:00.677Z,10.54
2023-03-21T06:27:27.217Z,10.56
2023-03-21T06:29:53.793Z,10.58
2023-03-21T06:32:20.282Z,10.60
2023-03-21T06:34:47.274Z,10.62
2023-03-21T06:37:13.809Z,10.66
2023-03-21T06:39:40.610Z,10.69
2023-03-21T06:42:07.195Z,10.72
2023-03-21T06:44:33.746Z,10.78
2023-03-21T06:47:00.540Z,10.82
2023-03-21T06:49:27.576Z,10.82
2023-03-21T06:51:54.152Z,10.83
2023-03-21T06:54:21.166Z,10.88
2023-03-21T06:56:47.774Z,10.89
2023-03-21T06:59:14.542Z,10.91
2023-03-21T07:01:42.892Z,10.92
2023-03-21T07:04:10.313Z,10.94
2023-03-21T07:06:37.432Z,10.96
2023-03-21T07:09:05.592Z,11.00
2023-03-21T07:11:32.612Z,11.04
2023-03-21T07:13:59.153Z,11.07
2023-03-21T07:16:26.015Z,11.11
2023-03-21T07:18:52.941Z,11.15
2023-03-21T07:21:19.852Z,11.19
2023-03-21T07:23:47.127Z,11.23
2023-03-21T07:26:13.667Z,11.27
2023-03-21T07:28:40.394Z,11.31
2023-03-21T07:31:08.475Z,11.34
2023-03-21T07:33:35.466Z,11.38
2023-03-21T07:36:02.640Z,11.42
2023-03-21T07:38:31.059Z,11.46
2023-03-21T07:40:59.700Z,11.53
2023-03-21T07:43:26.306Z,11.60
2023-03-21T07:45:57.379Z,11.66
2023-03-21T07:48:24.102Z,11.73
2023-03-21T07:50:51.045Z,11.77
2023-03-21T07:53:17.762Z,11.83
2023-03-21T07:55:44.487Z,11.88
2023-03-21T07:58:11.214Z,11.95
2023-03-21T08:00:37.729Z,12.02
2023-03-21T08:03:04.351Z,12.08
2023-03-21T08:05:34.801Z,12.12
2023-03-21T08:08:01.359Z,12.13
2023-03-21T08:10:28.275Z,12.15
2023-03-21T08:12:54.914Z,12.19
2023-03-21T08:15:21.783Z,12.22
2023-03-21T08:17:48.547Z,12.25
2023-03-21T08:20:18.117Z,12.27
2023-03-21T08:22:44.920Z,12.31
2023-03-21T08:25:14.039Z,12.33
2023-03-21T08:27:42.074Z,12.36
2023-03-21T08:30:10.540Z,12.40
2023-03-21T08:32:38.787Z,12.44
2023-03-21T08:35:10.249Z,12.46
2023-03-21T08:37:38.059Z,12.46
2023-03-21T08:40:11.492Z,12.49
2023-03-21T08:42:38.555Z,12.54
2023-03-21T08:45:06.180Z,12.59
2023-03-21T08:47:33.101Z,12.62
2023-03-21T08:49:59.692Z,12.71
2023-03-21T08:52:27.356Z,12.80
2023-03-21T08:54:57.094Z,12.87
2023-03-21T08:57:23.593Z,12.95
2023-03-21T08:59:50.307Z,13.04
2023-03-21T09:02:17.735Z,13.10
2023-03-21T09:04:45.005Z,13.16
2023-03-21T09:07:18.111Z,13.18
2023-03-21T09:09:47.596Z,13.23
2023-03-21T09:12:17.350Z,13.30
2023-03-21T09:14:43.863Z,13.34
2023-03-21T09:17:10.616Z,13.42
2023-03-21T09:19:38.964Z,13.50
2023-03-21T09:22:06.043Z,13.52
2023-03-21T09:24:33.039Z,13.55
2023-03-21T09:26:59.648Z,13.58
2023-03-21T09:29:26.549Z,13.64
2023-03-21T09:31:54.054Z,13.70
2023-03-21T09:34:20.828Z,13.79
2023-03-21T09:36:48.604Z,13.88
2023-03-21T09:39:16.286Z,13.91
2023-03-21T09:41:45.814Z,13.99
2023-03-21T09:44:41.237Z,14.02
2023-03-21T09:47:21.741Z,14.09
2023-03-21T09:49:56.564Z,14.14
2023-03-21T09:52:32.360Z,14.16
2023-03-21T09:54:59.600Z,14.17
2023-03-21T09:57:34.300Z,14.16
2023-03-21T10:00:16.237Z,14.19
2023-03-21T10:02:49.782Z,14.26
2023-03-21T10:05:22.726Z,14.33
2023-03-21T10:07:53.130Z,14.37
2023-03-21T10:10:24.834Z,14.41
2023-03-21T10:12:53.388Z,14.41
2023-03-21T10:15:21.989Z,14.41
2023-03-21T10:18:07.672Z,14.46
2023-03-21T10:20:36.406Z,14.45
2023-03-21T10:23:08.882Z,14.48
2023-03-21T10:25:48.630Z,14.52
2023-03-21T10:28:17.471Z,14.54
2023-03-21T10:30:55.120Z,14.54
2023-03-21T10:33:25.208Z,14.48
2023-03-21T10:36:17.737Z,14.46
2023-03-21T10:38:50.919Z,14.50
2023-03-21T10:41:17.486Z,14.62
2023-03-21T10:43:45.881Z,14.69
2023-03-21T10:46:21.216Z,14.76
2023-03-21T10:48:52.482Z,14.79
2023-03-21T10:51:31.554Z,14.82
2023-03-21T10:54:05.862Z,14.94
2023-03-21T10:56:37.018Z,15.03
2023-03-21T10:59:05.514Z,15.07
2023-03-21T11:01:43.806Z,15.15
2023-03-21T11:04:16.538Z,15.21
2023-03-21T11:06:52.395Z,15.23
2023-03-21T11:09:22.066Z,15.22
2023-03-21T11:11:52.728Z,15.23
2023-03-21T11:14:35.846Z,15.26
2023-03-21T11:17:07.642Z,15.26
2023-03-21T11:19:36.256Z,15.23
2023-03-21T11:22:07.020Z,15.26
2023-03-21T11:24:34.112Z,15.28
2023-03-21T11:27:01.730Z,15.33
2023-03-21T11:29:34.787Z,15.33
2023-03-21T11:32:13.146Z,15.41
2023-03-21T11:35:21.723Z,15.56
2023-03-21T11:37:53.691Z,15.56
2023-03-21T11:40:27.287Z,15.55
2023-03-21T11:42:59.386Z,15.53
2023-03-21T11:45:28.878Z,15.53
2023-03-21T11:47:57.810Z,15.63
2023-03-21T11:50:29.549Z,15.69
2023-03-21T11:53:02.165Z,15.71
2023-03-21T11:55:37.230Z,15.75
2023-03-21T11:58:27.239Z,15.78
2023-03-21T12:01:06.280Z,15.83
2023-03-21T12:03:48.675Z,15.90
2023-03-21T12:06:21.770Z,15.87
2023-03-21T12:08:58.687Z,15.94
2023-03-21T12:11:26.016Z,16.04
2023-03-21T12:14:02.095Z,16.11
2023-03-21T12:16:59.660Z,16.13
2023-03-21T12:20:00.702Z,16.29
2023-03-21T12:22:28.834Z,16.37
2023-03-21T12:24:57.388Z,16.44
2023-03-21T12:27:46.051Z,16.51
2023-03-21T12:30:34.424Z,16.48
2023-03-21T12:33:38.491Z,16.46
2023-03-21T12:36:18.525Z,16.44
2023-03-21T12:39:01.826Z,16.44
2023-03-21T12:41:44.015Z,16.48
2023-03-21T12:44:13.978Z,16.53
2023-03-21T12:46:46.159Z,16.56
2023-03-21T12:49:27.026Z,16.53
2023-03-21T12:52:14.980Z,16.52
2023-03-21T12:54:47.488Z,16.52
2023-03-21T12:57:26.516Z,16.52
2023-03-21T13:00:11.821Z,16.51
2023-03-21T13:02:42.484Z,16.49
2023-03-21T13:05:19.068Z,16.44
2023-03-21T13:07:49.223Z,16.44
2023-03-21T13:10:24.226Z,16.44
2023-03-21T13:13:17.119Z,16.41
2023-03-21T13:15:55.734Z,16.35
2023-03-21T13:18:32.918Z,16.29
2023-03-21T13:21:08.982Z,16.25
2023-03-21T13:23:38.644Z,16.21
2023-03-21T13:26:09.575Z,16.18
2023-03-21T13:28:36.616Z,16.16
2023-03-21T13:31:26.939Z,16.18
2023-03-21T13:33:55.249Z,16.15
2023-03-21T13:36:32.165Z,16.14
2023-03-21T13:39:05.736Z,16.14
2023-03-21T13:41:35.639Z,16.13
2023-03-21T13:44:02.191Z,16.14
2023-03-21T13:46:28.810Z,16.16
2023-03-21T13:48:59.743Z,16.21
2023-03-21T13:51:29.697Z,16.28
2023-03-21T13:54:00.293Z,16.29
2023-03-21T13:56:26.826Z,16.29
2023-03-21T13:58:57.917Z,16.26
2023-03-21T14:01:30.638Z,16.26
2023-03-21T14:04:05.620Z,16.26
2023-03-21T14:06:39.015Z,16.21
2023-03-21T14:09:06.070Z,16.20
2023-03-21T14:11:33.837Z,16.20
2023-03-21T14:14:01.533Z,16.19
2023-03-21T14:16:29.080Z,16.21
2023-03-21T14:19:06.239Z,16.22
2023-03-21T14:21:34.594Z,16.20
2023-03-21T14:24:06.623Z,16.19
2023-03-21T14:26:40.442Z,16.17
2023-03-21T14:29:22.898Z,16.16
2023-03-21T14:31:51.576Z,16.12
2023-03-21T14:34:19.028Z,16.10
2023-03-21T14:36:56.945Z,16.08
2023-03-21T14:39:28.679Z,16.05
2023-03-21T14:42:16.927Z,16.01
2023-03-21T14:44:56.693Z,15.95
2023-03-21T14:47:26.192Z,15.92
2023-03-21T14:49:53.032Z,15.91
2023-03-21T14:52:30.477Z,15.93
2023-03-21T14:54:57.231Z,15.93
2023-03-21T14:57:27.717Z,15.93
2023-03-21T14:59:55.869Z,15.89
2023-03-21T15:02:29.832Z,15.87
2023-03-21T15:04:58.444Z,15.87
2023-03-21T15:07:29.501Z,15.86
2023-03-21T15:09:59.363Z,15.86
2023-03-21T15:12:26.073Z,15.85
2023-03-21T15:14:53.151Z,15.83
2023-03-21T15:17:20.641Z,15.84
2023-03-21T15:19:47.199Z,15.84
2023-03-21T15:22:25.393Z,15.82
2023-03-21T15:24:53.970Z,15.82
2023-03-21T15:27:24.111Z,15.81
2023-03-21T15:29:54.275Z,15.81
2023-03-21T15:32:24.359Z,15.79
2023-03-21T15:34:52.643Z,15.76
2023-03-21T15:37:25.286Z,15.74
2023-03-21T15:39:52.533Z,15.72
2023-03-21T15:42:48.520Z,15.68
2023-03-21T15:45:19.001Z,15.64
2023-03-21T15:47:48.511Z,15.64
2023-03-21T15:50:24.723Z,15.61
2023-03-21T15:52:52.346Z,15.60
2023-03-21T15:55:35.425Z,15.60
2023-03-21T15:58:07.967Z,15.55
2023-03-21T16:00:49.954Z,15.53
2023-03-21T16:03:21.433Z,15.52
2023-03-21T16:06:14.474Z,15.51
2023-03-21T16:09:04.041Z,15.49
2023-03-21T16:11:52.835Z,15.47
2023-03-21T16:14:20.862Z,15.41
2023-03-21T16:16:48.008Z,15.39
2023-03-21T16:19:15.612Z,15.36
2023-03-21T16:21:42.228Z,15.35
2023-03-21T16:24:11.529Z,15.34
2023-03-21T16:26:50.726Z,15.31
2023-03-21T16:29:17.963Z,15.27
2023-03-21T16:31:44.770Z,15.25
2023-03-21T16:34:12.736Z,15.21
2023-03-21T16:36:40.594Z,15.12
2023-03-21T16:39:19.844Z,15.05
2023-03-21T16:41:46.983Z,15.03
2023-03-21T16:44:13.563Z,14.95
2023-03-21T16:46:40.578Z,14.90
2023-03-21T16:49:17.327Z,14.84
2023-03-21T16:51:43.938Z,14.78
2023-03-21T16:54:10.748Z,14.73
2023-03-21T16:56:40.608Z,14.65
2023-03-21T16:59:08.068Z,14.62
2023-03-21T17:01:38.476Z,14.52
2023-03-21T17:04:05.142Z,14.44
2023-03-21T17:06:31.715Z,14.39
2023-03-21T17:08:58.941Z,14.32
2023-03-21T17:11:26.591Z,14.26
2023-03-21T17:13:54.791Z,14.16
2023-03-21T17:16:26.591Z,14.10
2023-03-21T17:18:53.888Z,14.08
2023-03-21T17:21:25.489Z,14.03
2023-03-21T17:23:53.086Z,13.98
2023-03-21T17:26:22.662Z,13.93
2023-03-21T17:28:50.448Z,13.89
2023-03-21T17:31:20.514Z,13.85
2023-03-21T17:33:48.177Z,13.81
2023-03-21T17:36:20.647Z,13.80
2023-03-21T17:38:47.516Z,13.77
2023-03-21T17:41:15.990Z,13.75
2023-03-21T17:43:42.798Z,13.75
2023-03-21T17:46:20.425Z,13.75
2023-03-21T17:48:47.062Z,13.73
2023-03-21T17:51:16.060Z,13.74
2023-03-21T17:53:46.930Z,13.73
2023-03-21T17:56:16.000Z,13.73
2023-03-21T17:58:42.589Z,13.72
2023-03-21T18:01:09.180Z,13.73
2023-03-21T18:03:35.879Z,13.73
2023-03-21T18:06:02.554Z,13.73
2023-03-21T18:08:29.735Z,13.72
2023-03-21T18:10:57.319Z,13.71
2023-03-21T18:13:25.342Z,13.70
2023-03-21T18:15:52.991Z,13.68
2023-03-21T18:18:21.573Z,13.67
2023-03-21T18:20:53.812Z,13.65
2023-03-21T18:23:21.403Z,13.63
2023-03-21T18:25:48.394Z,13.59
2023-03-21T18:28:19.431Z,13.58
2023-03-21T18:33:36.722Z,13.53
2023-03-21T18:36:10.857Z,13.52
2023-03-21T18:38:39.504Z,13.53
2023-03-21T18:41:10.055Z,13.52
2023-03-21T18:46:24.424Z,13.51
2023-03-21T18:48:51.987Z,13.52
2023-03-21T18:51:19.425Z,13.53
2023-03-21T18:53:46.649Z,13.49
2023-03-21T18:56:39.502Z,13.49
2023-03-21T18:59:01.735Z,13.48
2023-03-21T19:01:28.773Z,13.47
2023-03-21T19:04:21.472Z,13.45
2023-03-21T19:06:51.307Z,13.44
2023-03-21T19:09:19.490Z,13.40
2023-03-21T19:11:46.846Z,13.38
2023-03-21T19:14:15.223Z,13.36
2023-03-21T19:17:15.016Z,13.33
2023-03-21T19:19:29.823Z,13.28
2023-03-21T19:21:56.954Z,13.25
2023-03-21T19:24:28.109Z,13.24
2023-03-21T19:26:55.756Z,13.22
2023-03-21T19:29:22.621Z,13.21
2023-03-21T19:31:51.252Z,13.20
2023-03-21T19:34:18.792Z,13.15
2023-03-21T19:36:50.886Z,13.12
2023-03-21T19:39:22.328Z,13.13
2023-03-21T19:41:50.184Z,13.09
2023-03-21T19:44:17.306Z,13.06
2023-03-21T19:46:44.156Z,13.03
2023-03-21T19:49:11.296Z,13.00
2023-03-21T19:51:38.051Z,12.97
2023-03-21T19:54:05.699Z,12.96
2023-03-21T19:56:34.352Z,12.88
2023-03-21T19:59:03.213Z,12.86
2023-03-21T20:01:32.259Z,12.85
2023-03-21T20:03:59.036Z,12.87
2023-03-21T20:06:26.942Z,12.84
2023-03-21T20:09:31.069Z,12.83
2023-03-21T20:11:40.779Z,12.81
2023-03-21T20:14:07.411Z,12.80
2023-03-21T20:16:36.577Z,12.79
2023-03-21T20:19:10.204Z,12.74
2023-03-21T20:21:48.161Z,12.73
2023-03-21T20:24:18.959Z,12.72
2023-03-21T20:26:46.556Z,12.71
2023-03-21T20:32:01.868Z,12.72
2023-03-21T20:34:30.460Z,12.71
2023-03-21T20:36:58.431Z,12.73
2023-03-21T20:39:26.530Z,12.71
2023-03-21T20:41:54.965Z,12.69
2023-03-21T20:44:51.815Z,12.69
2023-03-21T20:47:08.605Z,12.69
2023-03-21T20:49:35.417Z,12.67
2023-03-21T20:54:53.981Z,12.65
2023-03-21T20:57:21.189Z,12.66
2023-03-21T20:59:47.873Z,12.63
2023-03-21T21:02:14.511Z,12.60
2023-03-21T21:05:03.600Z,12.60
2023-03-21T21:07:29.359Z,12.61
2023-03-21T21:09:56.266Z,12.62
2023-03-21T21:12:28.683Z,12.60
2023-03-21T21:14:56.230Z,12.60
2023-03-21T21:17:40.392Z,12.59
2023-03-21T21:20:20.422Z,12.59
2023-03-21T21:22:58.964Z,12.54
2023-03-21T21:25:26.300Z,12.51
2023-03-21T21:27:53.785Z,12.47
2023-03-21T21:30:20.402Z,12.46
2023-03-21T21:32:46.821Z,12.45
2023-03-21T21:35:13.241Z,12.43
2023-03-21T21:37:41.777Z,12.43
2023-03-21T21:40:15.760Z,12.41
2023-03-21T21:42:43.534Z,12.37
2023-03-21T21:45:11.678Z,12.34
2023-03-21T21:47:38.212Z,12.36
2023-03-21T21:50:05.142Z,12.37
2023-03-21T21:52:31.593Z,12.38
2023-03-21T21:54:58.025Z,12.37
2023-03-21T21:57:24.440Z,12.37
2023-03-21T21:59:53.873Z,12.36
2023-03-21T22:02:23.844Z,12.36
2023-03-21T22:04:53.766Z,12.35
2023-03-21T22:07:20.215Z,12.34
2023-03-21T22:09:46.998Z,12.33
2023-03-21T22:12:13.418Z,12.34
2023-03-21T22:14:39.866Z,12.32
2023-03-21T22:17:07.215Z,12.33
2023-03-21T22:19:33.700Z,12.32
2023-03-21T22:22:00.193Z,12.30
2023-03-21T22:24:26.670Z,12.30
2023-03-21T22:26:58.113Z,12.29
2023-03-21T22:29:26.002Z,12.29
2023-03-21T22:31:54.218Z,12.27
2023-03-21T22:34:22.306Z,12.26
2023-03-21T22:36:50.219Z,12.25
2023-03-21T22:39:18.081Z,12.26
2023-03-21T22:41:45.269Z,12.20
2023-03-21T22:44:11.987Z,12.21
2023-03-21T22:46:38.418Z,12.19
2023-03-21T22:49:04.922Z,12.17
2023-03-21T22:51:31.324Z,12.14
2023-03-21T22:53:57.765Z,12.14
2023-03-21T22:56:24.183Z,12.14
2023-03-21T22:58:50.628Z,12.13
2023-03-21T23:01:17.071Z,12.11
2023-03-21T23:03:43.537Z,12.11
2023-03-21T23:06:10.006Z,12.10
2023-03-21T23:08:36.440Z,12.10
2023-03-21T23:11:07.287Z,12.08
2023-03-21T23:13:33.733Z,12.04
2023-03-21T23:16:04.115Z,12.02
2023-03-21T23:18:30.572Z,12.01
2023-03-21T23:20:58.216Z,11.99
2023-03-21T23:23:25.120Z,11.95
2023-03-21T23:25:52.033Z,11.92
2023-03-21T23:28:18.874Z,11.89
2023-03-21T23:30:45.401Z,11.89
2023-03-21T23:33:12.170Z,11.85
2023-03-21T23:35:38.753Z,11.84
2023-03-21T23:38:05.907Z,11.78
2023-03-21T23:40:32.326Z,11.78
2023-03-21T23:42:59.649Z,11.78
2023-03-21T23:45:26.316Z,11.79
2023-03-21T23:47:52.840Z,11.78
2023-03-21T23:50:19.288Z,11.78
2023-03-21T23:52:46.033Z,11.76
2023-03-21T23:55:12.431Z,11.74
2023-03-21T23:57:41.700Z,11.74
